Time;durP1;ratioP1;P1;durP2;ratioP2;P2;SDS_P1;SDS_P2;PMS_P1;PMS_P2;Temp;Humidity;BMP_temperature;BMP_pressure;BME280_temperature;BME280_humidity;BME280_pressure;Samples;Min_cycle;Max_cycle;Signal;HPM_P1;HPM_P2
2022/12/19 15:54:59;;;;;;;27.42;18.85;;;;;;;5.41;64.53;100518.16;1087316;54;20029;-81
2022/12/19 15:56:25;;;;;;;28.23;18.55;;;;;;;5.33;64.60;100516.97;1105556;46;20042;-81
2022/12/19 15:57:35;;;;;;;30.95;18.58;;;;;;;5.22;65.14;100509.69;1088299;54;20050;-82
2022/12/19 16:05:35;;;;;;;27.25;18.25;;;;;;;4.81;65.80;100506.97;1088803;54;20031;-84
2022/12/19 16:11:40;;;;;;;25.40;16.90;;;;;;;4.75;66.00;100506.50;1088191;54;20035;-83
2022/12/19 16:12:55;;;;;;;31.50;20.88;;;;;;;4.60;66.70;100497.69;1088651;54;20046;-82
2022/12/19 16:14:11;;;;;;;29.98;19.83;;;;;;;4.58;66.99;100499.59;1088205;54;20038;-78
2022/12/19 16:15:30;;;;;;;29.60;19.60;;;;;;;4.59;66.59;100511.88;1089810;46;20078;-79
2022/12/19 16:16:54;;;;;;;28.10;18.90;;;;;;;4.57;66.60;100511.13;1087754;54;20050;-78
2022/12/19 16:18:00;;;;;;;27.88;18.40;;;;;;;4.60;66.35;100519.72;1088690;54;20018;-84
2022/12/19 16:19:05;;;;;;;27.58;17.20;;;;;;;4.62;66.27;100509.06;1088497;54;20074;-83
2022/12/19 16:20:22;;;;;;;26.98;17.13;;;;;;;4.58;66.65;100510.19;1088554;54;20078;-83
2022/12/19 16:23:15;;;;;;;25.83;16.98;;;;;;;4.49;66.73;100507.16;1088219;54;19997;-80
2022/12/19 16:24:17;;;;;;;27.60;17.10;;;;;;;4.49;66.73;100511.56;1087860;54;20035;-81
2022/12/19 16:25:23;;;;;;;28.23;19.15;;;;;;;4.49;66.72;100517.75;1095855;31;20927;-81
2022/12/19 16:26:36;;;;;;;24.85;16.20;;;;;;;4.49;66.68;100509.81;1089749;46;20090;-80
2022/12/19 16:27:46;;;;;;;30.17;19.65;;;;;;;4.44;67.21;100509.22;1088191;46;20030;-80
2022/12/19 16:28:58;;;;;;;30.00;19.63;;;;;;;4.44;67.00;100511.03;1088000;54;20087;-81
2022/12/19 16:30:23;;;;;;;31.58;20.77;;;;;;;4.28;68.30;100511.09;1088152;54;20301;-81
2022/12/19 16:31:35;;;;;;;33.30;20.83;;;;;;;4.29;67.71;100507.50;1090706;46;20034;-81
2022/12/19 16:32:40;;;;;;;30.40;20.00;;;;;;;4.30;67.48;100496.81;1089104;46;20059;-79
2022/12/19 16:33:45;;;;;;;30.88;20.75;;;;;;;4.30;67.61;100495.97;1092712;39;20618;-79
2022/12/19 16:34:49;;;;;;;30.10;20.75;;;;;;;4.31;67.47;100497.69;1088920;46;20038;-80
2022/12/19 16:35:55;;;;;;;34.08;20.77;;;;;;;4.29;67.78;100491.63;1088141;46;20038;-80
2022/12/19 16:37:00;;;;;;;35.20;22.10;;;;;;;4.21;68.04;100489.44;1088239;46;20139;-79
2022/12/19 16:38:08;;;;;;;33.80;21.75;;;;;;;4.18;68.27;100487.00;1093557;39;20792;-83
2022/12/19 16:39:34;;;;;;;31.95;20.17;;;;;;;4.18;68.33;100494.94;1088180;54;20064;-83
2022/12/19 16:47:28;;;;;;;34.30;19.80;;;;;;;3.99;69.53;100474.00;1087903;54;20026;-83
2022/12/19 16:56:10;;;;;;;25.13;16.45;;;;;;;4.15;68.63;100481.88;1088206;46;20030;-82
2022/12/19 16:57:33;;;;;;;29.23;18.20;;;;;;;4.13;68.61;100479.34;1087587;54;20019;-81
2022/12/19 17:04:14;;;;;;;27.58;17.33;;;;;;;4.03;68.70;100484.31;1087051;46;19971;-82
2022/12/19 17:05:19;;;;;;;33.55;19.67;;;;;;;4.03;68.93;100491.41;1088249;54;20843;-81
2022/12/19 17:06:25;;;;;;;30.10;19.58;;;;;;;4.10;68.73;100482.16;1089077;46;20025;-82
2022/12/19 17:16:27;;;;;;;24.20;16.02;;;;;;;3.95;68.82;100491.03;1088061;46;20049;-81
2022/12/19 17:17:29;;;;;;;27.00;16.80;;;;;;;3.97;68.80;100492.63;1087426;54;20031;-84
2022/12/19 17:25:24;;;;;;;30.48;20.00;;;;;;;3.87;69.84;100489.66;1087556;54;20603;-82
2022/12/19 17:26:29;;;;;;;31.20;20.20;;;;;;;3.89;69.32;100490.44;1088389;54;20019;-82
2022/12/19 17:27:30;;;;;;;31.70;20.85;;;;;;;3.89;69.32;100487.78;1088241;54;20019;-82
2022/12/19 17:31:04;;;;;;;34.75;22.20;;;;;;;3.84;69.81;100489.00;1087943;54;20019;-81
2022/12/19 17:34:53;;;;;;;35.30;21.25;;;;;;;3.78;69.99;100487.56;1087321;54;20030;-80
2022/12/19 17:35:58;;;;;;;32.83;21.92;;;;;;;3.78;69.96;100484.91;1088721;46;20102;-82
2022/12/19 17:37:02;;;;;;;34.45;22.33;;;;;;;3.80;69.74;100485.69;1087984;54;20078;-80
2022/12/19 17:44:03;;;;;;;31.33;19.02;;;;;;;3.76;70.07;100494.75;1087800;54;20031;-83
2022/12/19 17:45:08;;;;;;;33.83;20.30;;;;;;;3.71;70.19;100496.81;1087837;54;20093;-82
2022/12/19 17:46:24;;;;;;;34.65;20.83;;;;;;;3.71;70.12;100491.50;1087712;54;20056;-80
2022/12/19 17:47:28;;;;;;;32.22;19.42;;;;;;;3.74;70.23;100496.63;1087339;54;20034;-79
2022/12/19 17:57:14;;;;;;;36.53;22.98;;;;;;;3.66;70.29;100528.81;1088299;54;19950;-84
2022/12/19 18:08:45;;;;;;;36.72;24.02;;;;;;;3.38;71.68;100511.03;1087494;54;20031;-79
2022/12/19 18:09:47;;;;;;;38.05;23.67;;;;;;;3.38;71.24;100513.69;1087110;54;20015;-79
2022/12/19 18:11:13;;;;;;;37.30;24.00;;;;;;;3.37;71.43;100511.97;1087148;54;20034;-80
2022/12/19 18:12:17;;;;;;;33.65;22.45;;;;;;;3.38;71.70;100508.41;1087525;54;20038;-79
2022/12/19 18:13:24;;;;;;;31.75;20.75;;;;;;;3.42;71.39;100500.22;1087585;54;20030;-80
2022/12/19 18:14:46;;;;;;;33.55;22.60;;;;;;;3.40;71.92;100502.06;1087046;54;20030;-80
2022/12/19 18:15:47;;;;;;;32.85;21.80;;;;;;;3.41;71.28;100498.50;1086412;54;20038;-80
2022/12/19 18:16:52;;;;;;;31.38;20.25;;;;;;;3.42;71.33;100501.97;1087024;54;20038;-79
2022/12/19 18:17:56;;;;;;;33.75;20.45;;;;;;;3.42;71.33;100504.63;1087967;46;20540;-80
2022/12/19 18:18:58;;;;;;;37.55;22.95;;;;;;;3.44;71.33;100508.03;1087990;39;20626;-82
2022/12/19 18:20:04;;;;;;;31.83;20.85;;;;;;;3.47;71.42;100509.66;1087727;54;20038;-82
2022/12/19 18:24:41;;;;;;;36.47;21.70;;;;;;;3.44;71.34;100510.69;1087835;54;20030;-82
2022/12/19 18:25:46;;;;;;;33.15;21.45;;;;;;;3.44;71.56;100513.31;1087856;54;20033;-80
2022/12/19 18:26:54;;;;;;;32.85;21.52;;;;;;;3.45;71.29;100509.75;1087730;54;20038;-79
2022/12/19 18:28:14;;;;;;;31.35;20.73;;;;;;;3.45;71.55;100506.25;1087954;54;20051;-81
2022/12/19 18:29:21;;;;;;;32.70;21.33;;;;;;;3.43;71.62;100507.19;1088027;46;20018;-81
2022/12/19 18:30:26;;;;;;;31.75;20.48;;;;;;;3.45;71.35;100507.09;1087746;54;20042;-80
2022/12/19 18:31:32;;;;;;;33.53;21.75;;;;;;;3.45;71.49;100504.47;1087544;54;20722;-81
2022/12/19 18:32:33;;;;;;;32.03;20.25;;;;;;;3.46;71.36;100502.66;1087566;54;20034;-79
2022/12/19 18:37:37;;;;;;;36.65;23.75;;;;;;;3.28;72.13;100498.34;1087331;54;20884;-81
2022/12/19 18:38:39;;;;;;;33.92;20.38;;;;;;;3.32;72.04;100500.78;1087117;54;20062;-81
2022/12/19 18:40:27;;;;;;;33.67;21.35;;;;;;;3.30;72.21;100498.25;1087522;54;20034;-82
2022/12/19 18:41:31;;;;;;;35.45;21.13;;;;;;;3.25;72.33;100503.78;1087410;54;20059;-79
2022/12/19 18:42:52;;;;;;;34.60;21.38;;;;;;;3.28;72.23;100518.63;1087806;54;20046;-83
2022/12/19 18:43:56;;;;;;;39.50;24.00;;;;;;;3.21;72.23;100512.81;1087709;54;20733;-83
2022/12/19 18:45:00;;;;;;;34.92;22.35;;;;;;;3.25;72.35;100501.16;1087594;54;20034;-78
2022/12/19 18:46:04;;;;;;;33.03;21.95;;;;;;;3.30;72.03;100500.06;1087498;54;20124;-78
2022/12/19 18:47:24;;;;;;;32.97;21.70;;;;;;;3.31;72.03;100497.31;1089335;46;20041;-79
2022/12/19 18:48:30;;;;;;;30.77;20.42;;;;;;;3.32;71.91;100499.03;1087113;54;20034;-81
2022/12/19 18:49:36;;;;;;;30.10;19.10;;;;;;;3.37;71.79;100491.66;1087039;54;20061;-80
2022/12/19 18:50:40;;;;;;;34.55;21.83;;;;;;;3.33;72.07;100502.50;1086978;54;20070;-80
2022/12/19 18:51:46;;;;;;;32.55;21.33;;;;;;;3.32;72.09;100499.03;1086955;54;20039;-80
2022/12/19 18:52:51;;;;;;;35.25;21.52;;;;;;;3.32;72.00;100499.03;1086710;54;20046;-81
2022/12/19 18:53:55;;;;;;;35.53;21.65;;;;;;;3.31;72.22;100504.41;1087712;54;20053;-80
2022/12/19 18:55:00;;;;;;;34.88;21.05;;;;;;;3.33;72.03;100498.09;1086829;54;20045;-80
2022/12/19 18:56:07;;;;;;;30.73;20.63;;;;;;;3.35;72.31;100495.34;1086904;54;20049;-81
2022/12/19 18:57:09;;;;;;;33.17;22.08;;;;;;;3.36;71.93;100495.25;1087370;54;20038;-79
2022/12/19 18:58:13;;;;;;;32.20;20.35;;;;;;;3.34;71.76;100491.88;1087608;54;20065;-79
2022/12/19 18:59:15;;;;;;;30.45;20.23;;;;;;;3.36;71.98;100497.06;1087814;54;20046;-81
2022/12/19 19:00:21;;;;;;;29.33;20.20;;;;;;;3.39;71.74;100494.25;1087849;54;20030;-80
2022/12/19 19:01:26;;;;;;;31.33;20.98;;;;;;;3.34;71.93;100496.28;1087129;54;20047;-81
2022/12/19 19:02:31;;;;;;;33.53;21.45;;;;;;;3.34;72.23;100496.28;1088728;46;20053;-80
2022/12/19 19:03:37;;;;;;;33.30;20.05;;;;;;;3.34;71.91;100491.00;1088376;54;20019;-81
2022/12/19 19:04:41;;;;;;;36.63;22.58;;;;;;;3.34;71.86;100491.00;1088178;54;20030;-84
2022/12/19 19:05:46;;;;;;;33.72;21.80;;;;;;;3.33;71.86;100484.00;1089071;39;20482;-81
2022/12/19 19:06:52;;;;;;;37.85;23.95;;;;;;;3.27;72.32;100478.16;1087759;54;20030;-82
2022/12/19 19:07:55;;;;;;;37.22;24.20;;;;;;;3.22;72.50;100488.09;1087284;54;20057;-80
2022/12/19 19:08:59;;;;;;;35.65;23.35;;;;;;;3.19;72.54;100487.44;1087758;54;20042;-83
2022/12/19 19:10:01;;;;;;;36.00;23.10;;;;;;;3.17;72.73;100476.97;1087540;54;20023;-81
2022/12/19 19:11:08;;;;;;;34.75;21.77;;;;;;;3.19;72.62;100483.00;1087884;54;20030;-82
2022/12/19 19:12:10;;;;;;;34.47;21.20;;;;;;;3.23;72.42;100496.91;1089264;46;20077;-83
2022/12/19 19:13:23;;;;;;;34.40;21.75;;;;;;;3.23;72.91;100481.03;1088288;54;20018;-83
2022/12/19 19:14:24;;;;;;;34.38;21.70;;;;;;;3.27;72.40;100485.19;1088160;54;20034;-81
2022/12/19 19:15:32;;;;;;;30.48;20.25;;;;;;;3.32;72.46;100498.16;1088396;39;20206;-81
2022/12/19 19:16:38;;;;;;;31.17;20.67;;;;;;;3.32;72.33;100492.88;1087699;54;20034;-82
2022/12/19 19:17:41;;;;;;;33.08;22.23;;;;;;;3.26;72.23;100483.50;1088286;54;20094;-82
2022/12/19 19:18:51;;;;;;;34.20;22.88;;;;;;;3.22;72.46;100488.09;1088172;54;20037;-83
2022/12/19 19:19:55;;;;;;;35.00;20.55;;;;;;;3.23;72.71;100500.38;1088286;54;20015;-82
2022/12/19 19:21:00;;;;;;;36.63;23.58;;;;;;;3.18;72.71;100497.16;1088242;54;20034;-84
2022/12/19 19:22:04;;;;;;;41.13;23.65;;;;;;;3.16;72.90;100493.75;1095915;39;20524;-82
2022/12/19 19:23:16;;;;;;;32.92;22.08;;;;;;;3.19;73.00;100498.88;1088258;54;20018;-84
2022/12/19 19:24:24;;;;;;;36.03;21.60;;;;;;;3.20;72.82;100497.94;1088127;54;20077;-82
2022/12/19 19:25:26;;;;;;;37.92;23.10;;;;;;;3.18;72.55;100494.53;1088244;54;20042;-83
2022/12/19 19:26:38;;;;;;;35.05;22.88;;;;;;;3.19;72.51;100503.28;1088227;54;20078;-82
2022/12/19 19:27:40;;;;;;;38.05;23.58;;;;;;;3.15;73.01;100494.69;1088158;54;20045;-84
2022/12/19 19:28:45;;;;;;;35.17;23.42;;;;;;;3.17;72.59;100489.31;1088640;39;20682;-83
2022/12/19 19:29:46;;;;;;;32.30;21.77;;;;;;;3.18;72.70;100486.59;1088148;54;20034;-84
2022/12/19 19:30:57;;;;;;;33.53;22.42;;;;;;;3.21;72.63;100490.84;1088274;54;20016;-85
2022/12/19 19:31:58;;;;;;;;;;;;;;;3.04;73.41;100478.56;1088410;54;20753;-84
2022/12/19 19:33:08;;;;;;;40.50;23.80;;;;;;;3.06;73.27;100480.22;1095457;39;20702;-83
2022/12/19 19:34:15;;;;;;;37.55;22.10;;;;;;;3.10;73.20;100480.88;1088184;54;20034;-82
2022/12/19 19:35:22;;;;;;;32.33;20.60;;;;;;;3.15;72.82;100485.91;1093360;39;20291;-84
2022/12/19 19:36:31;;;;;;;35.92;22.35;;;;;;;3.15;72.79;100475.34;1088204;54;20029;-83
2022/12/19 19:37:36;;;;;;;31.83;21.73;;;;;;;3.14;72.85;100479.75;1088023;54;20026;-81
2022/12/19 19:38:38;;;;;;;36.25;23.40;;;;;;;3.14;72.92;100477.13;1088149;54;20054;-83
2022/12/19 19:39:43;;;;;;;36.05;22.92;;;;;;;3.13;73.08;100478.06;1088207;54;20039;-82
2022/12/19 19:40:50;;;;;;;37.80;23.95;;;;;;;3.12;73.13;100476.34;1088223;54;20090;-85
2022/12/19 19:41:55;;;;;;;33.35;21.98;;;;;;;3.08;73.11;100478.31;1088113;54;20045;-84
2022/12/19 19:42:59;;;;;;;35.85;23.58;;;;;;;3.13;73.08;100478.06;1091665;39;20504;-82
2022/12/19 19:44:02;;;;;;;35.40;22.42;;;;;;;3.09;73.00;100484.47;1100675;39;20716;-83
2022/12/19 19:45:08;;;;;;;34.45;23.02;;;;;;;3.06;73.38;100480.22;1088125;54;21054;-84
2022/12/19 19:46:12;;;;;;;33.67;21.55;;;;;;;3.10;72.98;100487.00;1088222;54;20030;-84
2022/12/19 19:47:14;;;;;;;33.25;21.60;;;;;;;3.09;73.19;100487.94;1088130;54;20030;-82
2022/12/19 19:48:18;;;;;;;34.78;22.92;;;;;;;3.10;73.08;100478.25;1088094;54;20021;-85
2022/12/19 19:49:20;;;;;;;35.25;23.15;;;;;;;3.13;72.98;100483.34;1087797;54;20042;-78
2022/12/19 19:50:24;;;;;;;35.95;23.30;;;;;;;3.18;73.09;100483.06;1090607;39;20303;-79
2022/12/19 19:51:29;;;;;;;32.88;21.65;;;;;;;3.21;72.96;100482.91;1090896;39;20398;-80
2022/12/19 19:52:31;;;;;;;31.80;20.50;;;;;;;3.24;72.79;100475.66;1087321;54;20754;-79
2022/12/19 19:53:35;;;;;;;32.65;20.75;;;;;;;3.22;72.83;100476.69;1087342;54;20088;-79
2022/12/19 19:54:40;;;;;;;32.45;20.55;;;;;;;3.24;72.90;100486.22;1087229;54;20907;-79
2022/12/19 19:55:44;;;;;;;29.40;19.58;;;;;;;3.27;72.62;100475.50;1087221;54;20034;-79
2022/12/19 19:56:46;;;;;;;34.33;20.05;;;;;;;3.29;72.54;100480.69;1087289;54;20038;-78
2022/12/19 19:57:52;;;;;;;36.20;23.73;;;;;;;3.20;73.11;100471.50;1090336;39;20756;-79
2022/12/19 19:58:56;;;;;;;34.70;23.15;;;;;;;3.21;73.17;100480.28;1087354;54;20038;-79
2022/12/19 20:00:00;;;;;;;32.33;21.13;;;;;;;3.26;72.99;100484.38;1087439;54;20042;-78
2022/12/19 20:01:06;;;;;;;35.35;22.63;;;;;;;3.28;72.80;100482.50;1087290;54;20043;-79
2022/12/19 20:02:11;;;;;;;36.00;23.33;;;;;;;3.30;72.76;100478.91;1087256;54;20035;-79
2022/12/19 20:03:13;;;;;;;33.38;22.45;;;;;;;3.23;72.88;100481.88;1087306;54;20035;-79
2022/12/19 20:04:17;;;;;;;32.72;21.67;;;;;;;3.18;72.94;100489.22;1090722;39;20562;-80
2022/12/19 20:05:21;;;;;;;35.67;22.65;;;;;;;3.24;72.87;100480.94;1087301;54;20915;-79
2022/12/19 20:06:23;;;;;;;38.22;24.83;;;;;;;3.18;73.21;100468.09;1087328;54;20061;-79
2022/12/19 20:07:27;;;;;;;35.50;22.52;;;;;;;3.22;73.28;100474.06;1087401;54;20057;-79
2022/12/19 20:08:29;;;;;;;37.67;24.48;;;;;;;3.10;73.50;100468.53;1087077;39;20468;-78
2022/12/19 20:09:34;;;;;;;41.25;26.33;;;;;;;3.05;73.72;100475.88;1086927;54;20026;-79
2022/12/19 20:10:35;;;;;;;39.72;26.20;;;;;;;2.97;73.91;100478.94;1086926;54;20042;-78
2022/12/19 20:11:39;;;;;;;42.40;27.63;;;;;;;3.04;73.77;100491.78;1086446;54;20038;-78
2022/12/19 20:12:44;;;;;;;41.80;27.58;;;;;;;3.03;73.60;100488.31;1086528;54;20065;-78
2022/12/19 20:13:48;;;;;;;42.85;26.40;;;;;;;2.95;73.83;100490.53;1086852;54;20034;-78
2022/12/19 20:14:53;;;;;;;41.83;26.95;;;;;;;2.89;74.19;100483.78;1087083;54;20053;-81
2022/12/19 20:16:03;;;;;;;41.78;26.42;;;;;;;2.87;74.23;100490.94;1087333;54;20073;-81
2022/12/19 20:17:07;;;;;;;40.60;25.23;;;;;;;2.92;74.18;100485.41;1087546;54;20034;-80
2022/12/19 20:18:11;;;;;;;38.63;25.42;;;;;;;2.87;74.16;100477.72;1087999;54;20042;-81
2022/12/19 20:19:14;;;;;;;44.08;26.17;;;;;;;2.81;74.62;100473.63;1087886;54;20042;-81
2022/12/19 20:20:18;;;;;;;37.28;24.33;;;;;;;2.85;74.21;100481.41;1087955;54;20041;-81
2022/12/19 20:21:23;;;;;;;37.83;23.92;;;;;;;2.94;74.00;100479.09;1087857;54;20034;-80
2022/12/19 20:22:25;;;;;;;33.72;23.40;;;;;;;3.00;73.71;100475.25;1087961;54;20042;-82
2022/12/19 20:23:29;;;;;;;43.53;27.20;;;;;;;2.95;74.03;100483.44;1090883;39;20246;-82
2022/12/19 20:24:33;;;;;;;36.42;23.42;;;;;;;2.99;73.69;100481.47;1087915;54;20030;-82
2022/12/19 20:25:38;;;;;;;39.63;25.98;;;;;;;3.01;73.93;100484.88;1087791;54;20662;-81
2022/12/19 20:26:42;;;;;;;38.97;24.92;;;;;;;2.99;73.67;100485.91;1087844;54;20042;-83
2022/12/19 20:27:44;;;;;;;39.17;24.05;;;;;;;3.02;73.65;100485.75;1087882;54;20034;-81
2022/12/19 20:28:52;;;;;;;41.10;27.65;;;;;;;3.00;73.93;100490.25;1089613;46;20019;-83
2022/12/19 20:29:56;;;;;;;39.95;26.58;;;;;;;3.00;73.89;100482.34;1088850;39;21104;-80
2022/12/19 20:30:58;;;;;;;38.63;24.02;;;;;;;3.03;73.69;100488.31;1087801;54;20035;-82
2022/12/19 20:32:02;;;;;;;38.20;24.40;;;;;;;3.01;73.53;100491.97;1087919;54;20030;-81
2022/12/19 20:33:04;;;;;;;38.03;24.65;;;;;;;2.96;74.09;100493.06;1087926;54;20046;-81
2022/12/19 20:34:08;;;;;;;41.80;26.25;;;;;;;2.98;74.04;100492.97;1093430;39;20519;-81
2022/12/19 20:35:12;;;;;;;42.80;26.17;;;;;;;2.93;73.97;100492.38;1087846;54;20034;-81
2022/12/19 20:36:14;;;;;;;42.20;25.83;;;;;;;2.91;73.91;100497.75;1087810;54;20034;-82
2022/12/19 20:37:18;;;;;;;38.65;25.50;;;;;;;2.94;73.93;100494.94;1095432;39;20566;-82
2022/12/19 20:38:20;;;;;;;36.17;24.38;;;;;;;2.97;74.02;100499.22;1087907;54;20031;-81
2022/12/19 20:39:24;;;;;;;36.83;24.70;;;;;;;2.98;73.78;100490.31;1087908;54;20081;-81
2022/12/19 20:40:28;;;;;;;36.13;24.60;;;;;;;2.97;74.01;100496.56;1087893;54;20065;-80
2022/12/19 20:41:30;;;;;;;40.28;25.30;;;;;;;2.94;73.91;100504.66;1087945;54;20038;-81
2022/12/19 20:42:35;;;;;;;33.25;23.33;;;;;;;2.99;73.94;100501.75;1086524;54;20034;-80
2022/12/19 20:43:37;;;;;;;40.17;25.92;;;;;;;2.90;73.96;100503.09;1086517;54;20042;-80
2022/12/19 20:44:44;;;;;;;41.15;25.88;;;;;;;2.93;74.21;100497.66;1086677;54;20541;-81
2022/12/19 20:45:45;;;;;;;37.65;23.90;;;;;;;2.93;73.95;100501.16;1086760;54;20042;-80
2022/12/19 20:46:49;;;;;;;39.65;24.30;;;;;;;2.94;74.07;100499.38;1086904;54;21106;-80
2022/12/19 20:47:54;;;;;;;37.60;24.73;;;;;;;2.90;74.23;100503.97;1086939;54;20030;-81
2022/12/19 20:48:56;;;;;;;38.92;25.45;;;;;;;2.90;74.40;100493.41;1087766;39;20504;-80
2022/12/19 20:50:00;;;;;;;41.70;25.60;;;;;;;2.87;74.50;100496.22;1087488;54;20049;-79
2022/12/19 20:51:03;;;;;;;40.20;26.48;;;;;;;2.80;74.70;100490.41;1087432;54;20058;-78
2022/12/19 20:52:07;;;;;;;43.75;27.25;;;;;;;2.80;74.62;100497.50;1087398;54;20046;-79
2022/12/19 20:53:09;;;;;;;41.35;26.77;;;;;;;2.76;74.97;100494.19;1087394;54;20035;-79
2022/12/19 20:54:14;;;;;;;43.75;26.05;;;;;;;2.80;74.72;100494.84;1087827;46;20718;-78
2022/12/19 20:55:16;;;;;;;42.00;26.52;;;;;;;2.73;75.14;100496.97;1087202;54;20628;-80
2022/12/19 20:56:21;;;;;;;47.53;29.13;;;;;;;2.67;75.19;100497.31;1087432;54;20035;-79
2022/12/19 20:57:23;;;;;;;38.72;26.25;;;;;;;2.72;75.05;100492.63;1087755;39;20531;-78
2022/12/19 20:58:28;;;;;;;42.15;27.58;;;;;;;2.70;75.17;100491.84;1090559;39;20965;-79
2022/12/19 20:59:33;;;;;;;42.75;27.23;;;;;;;2.65;75.44;100494.72;1095003;39;20570;-79
2022/12/19 21:00:37;;;;;;;40.50;27.15;;;;;;;2.66;75.35;100485.03;1087377;54;20177;-78
2022/12/19 21:01:41;;;;;;;39.35;24.38;;;;;;;2.74;75.11;100497.84;1087396;54;20065;-79
2022/12/19 21:02:42;;;;;;;36.60;24.52;;;;;;;2.75;74.88;100491.59;1087284;54;20039;-79
2022/12/19 21:03:47;;;;;;;37.53;25.52;;;;;;;2.72;75.00;100494.44;1087353;54;20094;-78
2022/12/19 21:04:48;;;;;;;37.67;25.48;;;;;;;2.74;75.44;100497.84;1087404;54;20061;-79
2022/12/19 21:05:54;;;;;;;37.38;24.42;;;;;;;2.76;75.11;100502.09;1087382;54;20086;-78
2022/12/19 21:06:58;;;;;;;37.50;24.80;;;;;;;2.79;74.92;100503.72;1087438;54;20031;-78
2022/12/19 21:08:00;;;;;;;36.58;24.33;;;;;;;2.80;75.00;100498.34;1087273;54;20972;-78
2022/12/19 21:09:04;;;;;;;34.80;23.50;;;;;;;2.86;74.95;100513.00;1087036;54;20659;-78
2022/12/19 21:10:07;;;;;;;35.80;22.33;;;;;;;2.87;74.73;100505.94;1087456;54;20049;-78
2022/12/19 21:11:12;;;;;;;34.58;22.95;;;;;;;2.91;74.65;100504.81;1087347;54;20049;-78
2022/12/19 21:12:16;;;;;;;32.25;22.88;;;;;;;2.91;74.54;100496.91;1087274;54;20043;-79
2022/12/19 21:13:18;;;;;;;33.97;22.42;;;;;;;2.95;74.32;100499.28;1088398;46;20065;-78
2022/12/19 21:14:22;;;;;;;38.85;24.67;;;;;;;2.87;74.58;100496.22;1087246;54;20090;-79
2022/12/19 21:15:24;;;;;;;38.15;24.35;;;;;;;2.89;74.59;100504.03;1087224;54;20035;-78
2022/12/19 21:16:30;;;;;;;36.72;22.83;;;;;;;2.88;74.95;100491.81;1087380;54;20057;-78
2022/12/19 21:17:32;;;;;;;37.05;22.52;;;;;;;2.93;74.54;100495.03;1087322;54;20069;-78
2022/12/19 21:18:37;;;;;;;35.50;22.38;;;;;;;2.97;74.43;100494.78;1087300;54;20098;-78
2022/12/19 21:19:41;;;;;;;37.05;23.63;;;;;;;2.94;74.67;100497.56;1087344;54;20034;-78
2022/12/19 21:20:44;;;;;;;36.28;23.80;;;;;;;2.93;74.56;100493.22;1087272;54;20042;-77
2022/12/19 21:21:48;;;;;;;34.63;21.73;;;;;;;3.00;74.24;100498.19;1088693;39;20570;-78
2022/12/19 21:22:49;;;;;;;30.40;20.67;;;;;;;3.02;74.39;100507.72;1087211;54;20042;-78
2022/12/19 21:23:55;;;;;;;38.53;24.67;;;;;;;2.97;74.49;100497.41;1087321;54;20098;-78
2022/12/19 21:24:56;;;;;;;37.53;24.88;;;;;;;2.91;74.32;100495.13;1087842;46;20054;-78
2022/12/19 21:26:03;;;;;;;39.85;24.73;;;;;;;2.90;74.63;100503.97;1087288;54;20090;-77
2022/12/19 21:27:04;;;;;;;37.63;23.33;;;;;;;2.95;74.54;100509.00;1088147;39;20553;-79
2022/12/19 21:28:08;;;;;;;37.33;23.73;;;;;;;2.94;74.55;100500.22;1087286;54;20018;-79
2022/12/19 21:29:12;;;;;;;35.63;23.25;;;;;;;2.94;74.66;100513.41;1087208;54;20053;-78
2022/12/19 21:30:14;;;;;;;39.92;22.90;;;;;;;2.96;74.34;100519.47;1087363;54;20030;-78
2022/12/19 21:31:20;;;;;;;39.20;24.20;;;;;;;3.00;74.53;100516.69;1087405;54;20034;-79
2022/12/19 21:32:27;;;;;;;36.60;24.17;;;;;;;2.98;74.75;100511.47;1087309;54;20035;-78
2022/12/19 21:33:28;;;;;;;38.55;25.80;;;;;;;2.96;74.37;100514.19;1087790;54;20037;-78
2022/12/19 21:34:36;;;;;;;41.10;23.67;;;;;;;2.94;74.77;100510.78;1089110;46;20041;-78
2022/12/19 21:35:37;;;;;;;39.17;25.38;;;;;;;2.87;74.73;100519.97;1087942;54;20049;-78
2022/12/19 21:36:47;;;;;;;39.22;24.80;;;;;;;2.87;75.00;100516.50;1088672;46;20455;-79
2022/12/19 21:37:50;;;;;;;36.97;24.88;;;;;;;2.83;75.24;100523.75;1089097;46;20038;-79
2022/12/19 21:38:57;;;;;;;36.75;23.42;;;;;;;2.93;74.88;100524.09;1087810;54;20042;-78
2022/12/19 21:39:58;;;;;;;33.92;23.42;;;;;;;2.95;74.89;100511.66;1087740;54;20045;-78
2022/12/19 21:41:05;;;;;;;38.30;23.35;;;;;;;2.91;74.80;100510.97;1087709;54;20054;-78
2022/12/19 21:42:09;;;;;;;36.47;24.23;;;;;;;2.89;74.87;100504.03;1087419;54;20065;-78
2022/12/19 21:43:10;;;;;;;33.40;21.90;;;;;;;2.92;74.78;100512.69;1087363;54;20065;-78
2022/12/19 21:44:14;;;;;;;39.63;24.77;;;;;;;2.86;75.23;100513.00;1087268;54;20050;-79
2022/12/19 21:45:16;;;;;;;39.97;26.55;;;;;;;2.79;75.38;100509.00;1087145;54;20058;-79
2022/12/19 21:46:22;;;;;;;36.40;23.70;;;;;;;2.86;75.34;100512.16;1092212;39;20872;-79
2022/12/19 21:47:28;;;;;;;38.80;24.90;;;;;;;2.78;75.27;100508.16;1087178;54;20058;-79
2022/12/19 21:48:34;;;;;;;38.67;24.00;;;;;;;2.83;75.24;100521.09;1087312;54;20041;-79
2022/12/19 21:49:38;;;;;;;38.42;23.45;;;;;;;2.83;75.15;100515.81;1088665;46;20053;-80
2022/12/19 21:50:39;;;;;;;38.97;23.73;;;;;;;2.83;75.40;100513.19;1087164;54;20038;-79
2022/12/19 21:51:43;;;;;;;36.55;23.13;;;;;;;2.87;74.99;100519.16;1087193;54;20034;-79
2022/12/19 21:52:45;;;;;;;37.53;24.83;;;;;;;2.87;75.16;100514.69;1087192;54;20045;-79
2022/12/19 21:53:50;;;;;;;41.50;25.92;;;;;;;2.81;75.19;100501.84;1087287;54;20030;-79
2022/12/19 21:54:51;;;;;;;38.80;23.80;;;;;;;2.78;75.46;100510.78;1089178;39;20652;-80
2022/12/19 21:56:03;;;;;;;37.30;24.00;;;;;;;2.78;75.38;100507.28;1087153;54;20038;-78
2022/12/19 21:57:07;;;;;;;39.17;25.40;;;;;;;2.77;75.51;100510.84;1087108;54;20042;-79
2022/12/19 21:58:09;;;;;;;34.53;23.23;;;;;;;2.83;75.15;100505.25;1087273;54;20049;-78
2022/12/19 21:59:16;;;;;;;38.97;23.70;;;;;;;2.85;75.37;100505.16;1087167;54;20018;-78
2022/12/19 22:00:19;;;;;;;34.45;22.70;;;;;;;2.83;75.19;100510.53;1087437;54;20043;-79
2022/12/19 22:01:23;;;;;;;35.42;24.25;;;;;;;2.87;75.12;100504.13;1087757;39;20697;-80
2022/12/19 22:02:27;;;;;;;37.17;23.60;;;;;;;2.87;75.13;100508.59;1087461;54;20099;-78
2022/12/19 22:03:31;;;;;;;36.92;24.48;;;;;;;2.81;75.35;100493.91;1087568;54;20046;-79
2022/12/19 22:04:35;;;;;;;37.78;22.77;;;;;;;2.88;75.35;100502.38;1089661;39;21040;-79
2022/12/19 22:05:37;;;;;;;36.80;23.50;;;;;;;2.89;75.11;100509.31;1087382;54;20038;-79
2022/12/19 22:06:41;;;;;;;36.10;22.70;;;;;;;2.94;74.91;100504.66;1087387;46;20049;-78
2022/12/19 22:07:43;;;;;;;33.53;21.45;;;;;;;2.94;74.84;100504.66;1087886;39;20257;-78
2022/12/19 22:08:47;;;;;;;35.42;22.67;;;;;;;2.92;74.82;100510.03;1087450;54;20145;-79
2022/12/19 22:09:49;;;;;;;31.05;20.08;;;;;;;3.01;74.79;100510.47;1087083;54;20034;-79
2022/12/19 22:10:53;;;;;;;32.17;21.35;;;;;;;2.94;74.76;100505.50;1087492;54;20110;-79
2022/12/19 22:11:57;;;;;;;34.05;22.15;;;;;;;2.94;74.83;100515.22;1086981;54;20046;-80
2022/12/19 22:12:58;;;;;;;36.63;22.95;;;;;;;2.92;74.74;100517.09;1086510;54;20057;-80
2022/12/19 22:14:03;;;;;;;36.80;23.60;;;;;;;2.89;75.17;100517.25;1088715;39;20504;-79
2022/12/19 22:15:06;;;;;;;35.63;21.92;;;;;;;2.96;74.88;100519.47;1086892;54;20061;-80
2022/12/19 22:16:12;;;;;;;34.78;21.42;;;;;;;2.96;74.83;100514.19;1086866;54;20042;-81
2022/12/19 22:17:13;;;;;;;32.60;21.23;;;;;;;3.01;74.80;100513.94;1086633;54;20038;-80
2022/12/19 22:18:20;;;;;;;34.95;22.60;;;;;;;3.02;74.69;100513.00;1086775;54;20042;-80
2022/12/19 22:19:24;;;;;;;32.33;21.77;;;;;;;3.01;74.67;100518.38;1086371;54;20094;-81
2022/12/19 22:20:25;;;;;;;33.55;22.52;;;;;;;2.98;74.73;100506.19;1087445;46;20072;-82
2022/12/19 22:21:29;;;;;;;34.88;21.85;;;;;;;3.03;74.72;100513.84;1086608;54;20049;-79
2022/12/19 22:22:34;;;;;;;34.38;22.63;;;;;;;2.99;74.70;100507.03;1086321;54;20046;-81